Main page
METAR-TAF:

METAR-TAF

Airports :

Stockholm-Arlanda, Sweden

Stockholm Arlanda Airport

latitude: 59-39N, longitude: 017-57E, elevation: 38 m

Current weather observation

The report was made 29 minutes ago, at 04:50 UTC
Wind 13 kt from the West/Southwest
Temperature 5°C
Humidity 56%
Pressure 1018 hPa
Visibility 10 km or more
no clouds below 1500 m and no cumulonimbus

METAR: ESSA 260450Z 24013KT CAVOK 05/M03 Q1018 R01L/19//95 R08/19//95 R01R/19//95 NOSIG

Time: 07:19 (05:19 UTC)

Forecast

The report was made 5 hours and 49 minutes ago, at 23:30 UTC
Forecast valid from 26 at 00 UTC to 26 at 24 UTC
Wind 4 kt from the West/Southwest
Visibility 10 km or more
no clouds below 1500 m and no cumulonimbus
Becoming
from 26 at 09 UTC to 26 at 11 UTC
Wind 14 kt from the West
Temporary
from 26 at 12 UTC to 26 at 17 UTC
Wind 15 kt from the West/Northwest with gusts up to 28 kt

TAF: ESSA 252330Z 2600/2624 24004KT CAVOK BECMG 2609/2611 28014KT TEMPO 2612/2617 30015G28KT

Weather observations and forecasts of more than 4000 airports (METAR and TAF reports).

The available stations are represented by yellow and red dots on the map.

Hover mouse over dot to see the name of the station.

Then click to see weather observations and forecasts.

To change the map : click on the green buttons with a black cross to zoom in, on the green button with a dash to zoom out, or on the green arrows for adjacent maps.


METAR-TAF: